»·PEaware :: UAL404 EHAM-EKCH

UAL404 :: EHAM-EKCH

FLIGHT INFORMATION

Flight Status: Arrived
Operator:
United Airlines
More flights by this operator :: More flights under this callsign
Pilot: Wadhah A. (6578)
Aircraft: AIRBUS A320
(A320)
More flights by this aircraft type
Origin: EHAM Schiphol
Netherlands
Destination: EKCH Kastrup
Denmark
More flights between these airports :: More routes between these airports
Route: ANDIK N873 JUIST P174 NIMDO P999 ALS T53 TUDLO
File this flight plan on PilotEdge
Remarks:
Altitude:
(Current/Filed)
30,000ft
Speed:
(Current/Filed)
450kts
Departed: 28-Dec-15 11:22 PM
Arrived: 29-Dec-15 12:24 AM
Distance/Time
Traveled:
342nm/1:02
Distance/Time
To Go:
Arrived

Flight Plot

Page will automatically refresh every two minutes.


Map Options




Map Legend


Flown Route
Filed Route
Departure Airport
Arrival Airport
Navaid (VOR, NDB)
Fix

Horizontal Profiles

Position Reports

Time Latitude Longitude Heading Altitude Ground
Speed
28-Dec-15 22:58 52.313569 4.755825 87 -1ft 0kts
28-Dec-15 22:59 52.313569 4.755825 87 -1ft 0kts
28-Dec-15 23:00 52.313569 4.755825 87 -1ft 0kts
28-Dec-15 23:01 52.313569 4.755825 87 -1ft 0kts
28-Dec-15 23:02 52.313569 4.755825 87 -1ft 0kts
28-Dec-15 23:03 52.313569 4.755825 87 -1ft 0kts
28-Dec-15 23:04 52.313569 4.755825 87 -1ft 0kts
28-Dec-15 23:05 52.313475 4.754723 42 -1ft 0kts
28-Dec-15 23:06 52.313337 4.754631 4 -2ft 0kts
28-Dec-15 23:07 52.313337 4.754631 4 -2ft 0kts
28-Dec-15 23:08 52.313337 4.754631 4 -2ft 0kts
28-Dec-15 23:09 52.315039 4.751380 267 -1ft 21kts
28-Dec-15 23:10 52.313995 4.742503 60 -2ft 13kts
28-Dec-15 23:11 52.314195 4.742771 15 -1ft 0kts
28-Dec-15 23:12 52.314195 4.742771 15 -1ft 0kts
28-Dec-15 23:13 52.314195 4.742771 15 -1ft 0kts
28-Dec-15 23:14 52.318864 4.743277 3 -2ft 24kts
28-Dec-15 23:15 52.325822 4.743839 3 -2ft 30kts
28-Dec-15 23:16 52.330887 4.743642 274 -2ft 6kts
28-Dec-15 23:17 52.330937 4.742479 274 -2ft 10kts
28-Dec-15 23:18 52.320929 4.739152 183 0ft 155kts
28-Dec-15 23:19 52.277472 4.708308 228 2157ft 235kts
28-Dec-15 23:20 52.236473 4.610402 252 5790ft 275kts
28-Dec-15 23:21 52.270307 4.512842 326 9216ft 281kts
28-Dec-15 23:22 52.343880 4.435679 328 10773ft 364kts
28-Dec-15 23:23 52.447085 4.407313 352 13931ft 392kts
28-Dec-15 23:24 52.557042 4.389490 352 16929ft 411kts
28-Dec-15 23:25 52.672559 4.371270 354 19343ft 428kts
28-Dec-15 23:26 52.760670 4.475021 85 21160ft 414kts
28-Dec-15 23:27 52.747714 4.659017 98 23091ft 416kts
28-Dec-15 23:28 52.744756 4.849403 97 25069ft 430kts
28-Dec-15 23:29 52.742431 5.048772 97 26938ft 443kts
28-Dec-15 23:30 52.743515 5.246507 82 28470ft 464kts
28-Dec-15 23:31 52.815030 5.430350 57 29775ft 489kts
28-Dec-15 23:32 52.896993 5.606590 56 30195ft 485kts
28-Dec-15 23:33 52.979097 5.782275 55 30184ft 483kts
28-Dec-15 23:34 53.060958 5.958589 55 30184ft 482kts
28-Dec-15 23:35 53.141093 6.133016 55 30183ft 481kts
28-Dec-15 23:36 53.222210 6.309788 56 30191ft 481kts
28-Dec-15 23:37 53.289503 6.458169 56 30207ft 482kts
28-Dec-15 23:38 53.375485 6.629923 45 30195ft 488kts
28-Dec-15 23:39 53.474942 6.784290 45 30200ft 487kts
28-Dec-15 23:40 53.569778 6.939556 57 30204ft 482kts
28-Dec-15 23:41 53.645124 7.119833 58 30242ft 478kts
28-Dec-15 23:42 53.720244 7.301330 58 30263ft 477kts
28-Dec-15 23:43 53.814178 7.450459 38 30263ft 485kts
28-Dec-15 23:44 53.921250 7.582541 37 30264ft 485kts
28-Dec-15 23:45 54.029616 7.716325 37 30264ft 485kts
28-Dec-15 23:46 54.137961 7.850944 37 30265ft 485kts
28-Dec-15 23:47 54.223747 8.018901 60 30285ft 474kts
28-Dec-15 23:48 54.291864 8.206522 61 30335ft 470kts
28-Dec-15 23:49 54.358872 8.395155 61 30358ft 470kts
28-Dec-15 23:50 54.426156 8.586319 61 30373ft 470kts
28-Dec-15 23:51 54.492723 8.776930 61 30373ft 470kts
28-Dec-15 23:52 54.558551 8.966858 61 30371ft 470kts
28-Dec-15 23:53 54.624997 9.158828 61 30372ft 469kts
28-Dec-15 23:54 54.690323 9.349507 60 30372ft 466kts
28-Dec-15 23:55 54.755682 9.542532 60 30372ft 465kts
28-Dec-15 23:56 54.820853 9.736617 60 30387ft 465kts
28-Dec-15 23:57 54.884223 9.930112 60 30399ft 465kts
28-Dec-15 23:58 54.953966 10.115255 79 29192ft 463kts
28-Dec-15 23:59 55.004406 10.315055 61 25985ft 454kts
29-Dec-15 00:00 55.066888 10.500517 61 22888ft 439kts
29-Dec-15 00:01 55.125967 10.676725 61 20043ft 408kts
29-Dec-15 00:02 55.181605 10.843846 61 17480ft 390kts
29-Dec-15 00:03 55.234926 11.005102 61 15187ft 378kts
29-Dec-15 00:04 55.279187 11.139183 61 13451ft 362kts
29-Dec-15 00:05 55.325696 11.280338 62 12308ft 331kts
29-Dec-15 00:06 55.368494 11.411963 62 11643ft 295kts
29-Dec-15 00:07 55.407950 11.534087 62 11132ft 285kts
29-Dec-15 00:08 55.446988 11.654876 61 10634ft 284kts
29-Dec-15 00:09 55.487887 11.773372 61 9505ft 282kts
29-Dec-15 00:10 55.527946 11.889597 61 8247ft 274kts
29-Dec-15 00:11 55.566559 12.001819 61 7024ft 266kts
29-Dec-15 00:12 55.604049 12.111350 62 5830ft 258kts
29-Dec-15 00:13 55.640664 12.217586 64 4251ft 255kts
29-Dec-15 00:14 55.674949 12.318271 65 3348ft 210kts
29-Dec-15 00:15 55.702661 12.399506 65 3037ft 185kts
29-Dec-15 00:16 55.691023 12.463920 131 2359ft 157kts
29-Dec-15 00:17 55.666569 12.524306 123 1525ft 145kts
29-Dec-15 00:18 55.644061 12.585405 121 758ft 136kts
29-Dec-15 00:19 55.625443 12.635772 124 46ft 116kts
29-Dec-15 00:20 55.619660 12.658587 42 8ft 25kts
29-Dec-15 00:21 55.624474 12.659430 272 9ft 14kts
29-Dec-15 00:22 55.626035 12.652118 8 9ft 16kts
29-Dec-15 00:23 55.627371 12.653598 13 9ft 0kts
29-Dec-15 00:24 55.627371 12.653598 13 9ft 0kts
29-Dec-15 00:25 55.627371 12.653598 13 9ft 0kts
29-Dec-15 00:26 55.627371 12.653598 13 9ft 0kts
29-Dec-15 00:27 55.627371 12.653598 13 9ft 0kts
29-Dec-15 00:28 55.627371 12.653598 13 9ft 0kts
29-Dec-15 00:29 55.627371 12.653598 13 9ft 0kts
29-Dec-15 00:30 55.627371 12.653598 13 9ft 0kts
29-Dec-15 00:31 55.627371 12.653598 13 9ft 0kts
29-Dec-15 00:32 55.627371 12.653598 13 9ft 0kts
29-Dec-15 00:33 55.627371 12.653598 13 9ft 0kts
29-Dec-15 00:34 55.627371 12.653598 13 9ft 0kts

Navigation Log

Ident Type
Flight plan parsing failed, navigation log unavailable